Terminal Aerodrome Forecast
Issued by NWS Twin Cities, MN

Home | Current Version | Previous Version | Text Only | Print | Product List | Glossary Off
Versions: 1 2 3 4 5 6 7 8 9 10 11 12 13 14 15 16 17 18 19 20 21 22 23 24 25 26

000
FTUS43 KMPX 050520
TAFMSP
TAF
KMSP 050520Z 0506/0612 18006KT 6SM HZ FEW250
      TEMPO 0509/0513 3SM HZ BR
     FM051400 18011KT P6SM FEW250
     FM051700 18014G23KT P6SM SCT250
     FM060600 18012G18KT 6SM -TSRA SCT050CB BKN150
     FM060900 VRB15G25KT 3SM TSRA BKN020CB=

USA.gov is the U.S. government's official web portal to all federal, state and local government web resources and services.